sensor_id;sensor_type;location;lat;lon;timestamp;pressure;altitude;pressure_sealevel;temperature;humidity
45937;BME280;31649;46.510;6.498;2023-03-30T06:02:59;95102.06;;;5.05;67.97
45937;BME280;31649;46.510;6.498;2023-03-30T06:05:25;95108.72;;;5.08;67.96
45937;BME280;31649;46.510;6.498;2023-03-30T06:07:51;95106.31;;;5.16;67.24
45937;BME280;31649;46.510;6.498;2023-03-30T06:10:17;95117.31;;;5.28;68.43
45937;BME280;31649;46.510;6.498;2023-03-30T06:12:43;95110.94;;;5.32;68.31
45937;BME280;31649;46.510;6.498;2023-03-30T06:15:09;95120.56;;;5.40;67.38
45937;BME280;31649;46.510;6.498;2023-03-30T06:17:39;95122.47;;;5.48;66.37
45937;BME280;31649;46.510;6.498;2023-03-30T06:20:08;95119.25;;;5.56;65.29
45937;BME280;31649;46.510;6.498;2023-03-30T06:22:37;95122.50;;;5.68;64.63
45937;BME280;31649;46.510;6.498;2023-03-30T06:25:04;95114.59;;;5.79;64.01
45937;BME280;31649;46.510;6.498;2023-03-30T06:27:31;95101.56;;;5.91;64.03
45937;BME280;31649;46.510;6.498;2023-03-30T06:29:57;95119.91;;;5.98;63.66
45937;BME280;31649;46.510;6.498;2023-03-30T06:32:23;95112.72;;;6.11;63.64
45937;BME280;31649;46.510;6.498;2023-03-30T06:34:49;95101.56;;;6.21;63.68
45937;BME280;31649;46.510;6.498;2023-03-30T06:37:15;95110.78;;;6.33;63.64
45937;BME280;31649;46.510;6.498;2023-03-30T06:39:40;95111.13;;;6.48;63.93
45937;BME280;31649;46.510;6.498;2023-03-30T06:42:06;95114.19;;;6.72;63.82
45937;BME280;31649;46.510;6.498;2023-03-30T06:44:32;95112.38;;;6.82;62.92
45937;BME280;31649;46.510;6.498;2023-03-30T06:46:59;95103.78;;;6.92;63.76
45937;BME280;31649;46.510;6.498;2023-03-30T06:49:25;95114.81;;;7.12;65.09
45937;BME280;31649;46.510;6.498;2023-03-30T06:51:50;95120.81;;;7.13;68.49
45937;BME280;31649;46.510;6.498;2023-03-30T06:54:16;95122.00;;;7.18;71.13
45937;BME280;31649;46.510;6.498;2023-03-30T06:56:46;95126.69;;;7.33;73.33
45937;BME280;31649;46.510;6.498;2023-03-30T06:59:12;95125.13;;;7.40;74.39
45937;BME280;31649;46.510;6.498;2023-03-30T07:01:38;95121.75;;;7.40;73.79
45937;BME280;31649;46.510;6.498;2023-03-30T07:04:04;95126.63;;;7.43;74.78
45937;BME280;31649;46.510;6.498;2023-03-30T07:06:30;95104.44;;;7.40;77.08
45937;BME280;31649;46.510;6.498;2023-03-30T07:08:56;95106.06;;;7.41;76.39
45937;BME280;31649;46.510;6.498;2023-03-30T07:11:22;95112.94;;;7.51;76.47
45937;BME280;31649;46.510;6.498;2023-03-30T07:13:48;95120.44;;;7.26;79.71
45937;BME280;31649;46.510;6.498;2023-03-30T07:16:14;95121.66;;;7.31;79.59
45937;BME280;31649;46.510;6.498;2023-03-30T07:18:39;95119.44;;;7.37;79.83
45937;BME280;31649;46.510;6.498;2023-03-30T07:21:05;95123.38;;;7.41;80.30
45937;BME280;31649;46.510;6.498;2023-03-30T07:23:31;95124.09;;;7.33;81.92
45937;BME280;31649;46.510;6.498;2023-03-30T07:25:57;95126.69;;;7.51;80.52
45937;BME280;31649;46.510;6.498;2023-03-30T07:28:23;95131.38;;;7.48;81.26
45937;BME280;31649;46.510;6.498;2023-03-30T07:30:49;95130.31;;;7.40;81.16
45937;BME280;31649;46.510;6.498;2023-03-30T07:33:15;95138.38;;;7.37;81.52
45937;BME280;31649;46.510;6.498;2023-03-30T07:35:44;95144.47;;;7.46;81.41
45937;BME280;31649;46.510;6.498;2023-03-30T07:38:14;95149.84;;;7.53;80.97
45937;BME280;31649;46.510;6.498;2023-03-30T07:40:40;95147.31;;;7.43;82.25
45937;BME280;31649;46.510;6.498;2023-03-30T07:43:06;95144.47;;;7.46;82.52
45937;BME280;31649;46.510;6.498;2023-03-30T07:45:32;95138.88;;;7.41;82.89
45937;BME280;31649;46.510;6.498;2023-03-30T07:47:58;95136.22;;;7.32;83.61
45937;BME280;31649;46.510;6.498;2023-03-30T07:50:24;95133.94;;;7.29;83.86
45937;BME280;31649;46.510;6.498;2023-03-30T07:52:50;95147.72;;;7.48;82.63
45937;BME280;31649;46.510;6.498;2023-03-30T07:55:17;95149.13;;;7.61;82.39
45937;BME280;31649;46.510;6.498;2023-03-30T07:57:43;95147.03;;;7.46;82.11
45937;BME280;31649;46.510;6.498;2023-03-30T08:00:10;95145.63;;;7.52;82.39
45937;BME280;31649;46.510;6.498;2023-03-30T08:02:39;95136.81;;;7.45;83.85
45937;BME280;31649;46.510;6.498;2023-03-30T08:05:06;95133.94;;;7.48;84.09
45937;BME280;31649;46.510;6.498;2023-03-30T08:07:32;95145.41;;;7.45;83.99
45937;BME280;31649;46.510;6.498;2023-03-30T08:10:00;95131.94;;;7.60;83.06
45937;BME280;31649;46.510;6.498;2023-03-30T08:12:26;95129.38;;;7.60;83.46
45937;BME280;31649;46.510;6.498;2023-03-30T08:14:51;95126.19;;;7.66;84.66
45937;BME280;31649;46.510;6.498;2023-03-30T08:17:20;95120.00;;;7.59;85.02
45937;BME280;31649;46.510;6.498;2023-03-30T08:19:46;95123.44;;;7.68;84.86
45937;BME280;31649;46.510;6.498;2023-03-30T08:22:11;95117.31;;;7.69;84.43
45937;BME280;31649;46.510;6.498;2023-03-30T08:24:37;95121.16;;;7.83;84.34
45937;BME280;31649;46.510;6.498;2023-03-30T08:27:03;95129.00;;;7.91;83.88
45937;BME280;31649;46.510;6.498;2023-03-30T08:29:28;95120.84;;;7.68;85.72
45937;BME280;31649;46.510;6.498;2023-03-30T08:31:56;95126.19;;;7.66;85.94
45937;BME280;31649;46.510;6.498;2023-03-30T08:34:22;95127.09;;;7.75;85.79
45937;BME280;31649;46.510;6.498;2023-03-30T08:36:48;95130.34;;;7.77;85.34
45937;BME280;31649;46.510;6.498;2023-03-30T08:39:14;95124.50;;;7.75;85.53
45937;BME280;31649;46.510;6.498;2023-03-30T08:41:51;95121.75;;;7.76;86.25
45937;BME280;31649;46.510;6.498;2023-03-30T08:44:42;95118.56;;;7.83;86.21
45937;BME280;31649;46.510;6.498;2023-03-30T08:47:12;95118.88;;;7.80;85.91
45937;BME280;31649;46.510;6.498;2023-03-30T08:49:45;95106.44;;;7.83;86.62
45937;BME280;31649;46.510;6.498;2023-03-30T08:52:18;95105.34;;;7.86;87.21
45937;BME280;31649;46.510;6.498;2023-03-30T08:54:46;95102.16;;;7.92;86.95
45937;BME280;31649;46.510;6.498;2023-03-30T09:00:21;95091.63;;;7.94;87.94
45937;BME280;31649;46.510;6.498;2023-03-30T09:02:59;95076.38;;;8.09;87.79
45937;BME280;31649;46.510;6.498;2023-03-30T09:05:31;95066.28;;;8.06;87.75
45937;BME280;31649;46.510;6.498;2023-03-30T09:08:20;95063.91;;;8.12;87.34
45937;BME280;31649;46.510;6.498;2023-03-30T09:10:52;95062.22;;;8.03;85.23
45937;BME280;31649;46.510;6.498;2023-03-30T09:13:23;95064.09;;;7.93;82.38
45937;BME280;31649;46.510;6.498;2023-03-30T09:20:50;95064.91;;;7.93;80.13
45937;BME280;31649;46.510;6.498;2023-03-30T09:23:17;95063.31;;;7.92;79.52
45937;BME280;31649;46.510;6.498;2023-03-30T09:28:32;95046.50;;;7.96;78.05
45937;BME280;31649;46.510;6.498;2023-03-30T09:33:35;95028.50;;;7.95;78.48
45937;BME280;31649;46.510;6.498;2023-03-30T09:38:39;95015.19;;;8.16;77.52
45937;BME280;31649;46.510;6.498;2023-03-30T09:41:30;95004.63;;;8.36;76.81
45937;BME280;31649;46.510;6.498;2023-03-30T09:44:00;94990.50;;;8.39;77.26
45937;BME280;31649;46.510;6.498;2023-03-30T09:46:27;94979.13;;;8.58;75.84
45937;BME280;31649;46.510;6.498;2023-03-30T09:48:52;94975.09;;;8.64;74.95
45937;BME280;31649;46.510;6.498;2023-03-30T09:51:26;94973.00;;;8.67;75.10
45937;BME280;31649;46.510;6.498;2023-03-30T09:54:02;94999.75;;;8.76;74.59
45937;BME280;31649;46.510;6.498;2023-03-30T09:56:39;94997.81;;;8.78;75.08
45937;BME280;31649;46.510;6.498;2023-03-30T09:59:33;95011.91;;;8.67;75.19
45937;BME280;31649;46.510;6.498;2023-03-30T10:02:18;94992.47;;;8.72;74.12
45937;BME280;31649;46.510;6.498;2023-03-30T10:07:31;94995.09;;;8.88;74.98
45937;BME280;31649;46.510;6.498;2023-03-30T10:09:59;94995.25;;;8.95;74.59
45937;BME280;31649;46.510;6.498;2023-03-30T10:12:27;94992.19;;;9.00;73.61
45937;BME280;31649;46.510;6.498;2023-03-30T10:14:55;94991.06;;;8.94;74.41
45937;BME280;31649;46.510;6.498;2023-03-30T10:17:24;94988.75;;;8.91;73.34
45937;BME280;31649;46.510;6.498;2023-03-30T10:19:52;95003.16;;;8.77;73.95
45937;BME280;31649;46.510;6.498;2023-03-30T10:22:20;95007.38;;;8.69;74.98
45937;BME280;31649;46.510;6.498;2023-03-30T10:24:53;95012.56;;;8.69;74.83
45937;BME280;31649;46.510;6.498;2023-03-30T10:27:41;95011.56;;;8.70;74.42
45937;BME280;31649;46.510;6.498;2023-03-30T10:30:11;95031.78;;;8.58;74.95
45937;BME280;31649;46.510;6.498;2023-03-30T10:32:44;95042.56;;;8.80;78.86
45937;BME280;31649;46.510;6.498;2023-03-30T10:35:17;95027.63;;;8.74;78.14
45937;BME280;31649;46.510;6.498;2023-03-30T10:37:45;95012.44;;;8.88;76.44
45937;BME280;31649;46.510;6.498;2023-03-30T10:42:40;95007.72;;;8.83;78.21
45937;BME280;31649;46.510;6.498;2023-03-30T10:45:13;95014.16;;;8.70;77.99
45937;BME280;31649;46.510;6.498;2023-03-30T10:48:03;95022.50;;;8.56;76.37
45937;BME280;31649;46.510;6.498;2023-03-30T10:56:40;95038.31;;;8.71;79.38
45937;BME280;31649;46.510;6.498;2023-03-30T10:59:39;95033.81;;;8.81;78.47
45937;BME280;31649;46.510;6.498;2023-03-30T11:04:41;95028.31;;;8.93;87.70
45937;BME280;31649;46.510;6.498;2023-03-30T11:07:45;95022.38;;;9.01;86.45
45937;BME280;31649;46.510;6.498;2023-03-30T11:13:00;95011.50;;;9.05;86.41
45937;BME280;31649;46.510;6.498;2023-03-30T11:15:32;95006.63;;;8.94;83.96
45937;BME280;31649;46.510;6.498;2023-03-30T11:18:01;95006.16;;;8.99;81.66
45937;BME280;31649;46.510;6.498;2023-03-30T11:20:38;95030.16;;;9.01;82.84
45937;BME280;31649;46.510;6.498;2023-03-30T11:23:31;95053.16;;;8.96;81.46
45937;BME280;31649;46.510;6.498;2023-03-30T11:25:58;95075.88;;;9.02;83.54
45937;BME280;31649;46.510;6.498;2023-03-30T11:31:26;95088.13;;;8.83;79.85
45937;BME280;31649;46.510;6.498;2023-03-30T11:34:33;95095.28;;;8.89;78.60
